createdAt,value
2024-05-09T00:03:47.075Z,10.30
2024-05-09T00:08:49.393Z,12.10
2024-05-09T00:13:51.697Z,9.60
2024-05-09T00:18:54.370Z,9.60
2024-05-09T00:28:58.949Z,10.40
2024-05-09T00:34:01.688Z,9.20
2024-05-09T00:39:03.946Z,9.40
2024-05-09T00:44:06.137Z,11.90
2024-05-09T00:49:08.739Z,9.30
2024-05-09T01:19:29.844Z,8.70
2024-05-09T01:29:34.587Z,8.60
2024-05-09T01:34:37.293Z,8.60
2024-05-09T01:49:44.491Z,7.90
2024-05-09T01:59:50.211Z,10.60
2024-05-09T02:14:57.858Z,8.80
2024-05-09T02:19:59.956Z,8.40
2024-05-09T02:30:09.925Z,8.10
2024-05-09T02:35:17.497Z,7.70
2024-05-09T02:45:35.625Z,7.90
2024-05-09T02:50:39.904Z,8.30
2024-05-09T03:00:46.420Z,8.40
2024-05-09T03:05:48.718Z,8.10
2024-05-09T03:15:53.573Z,8.30
2024-05-09T03:20:55.830Z,8.70
2024-05-09T03:31:00.475Z,8.50
2024-05-09T03:36:09.795Z,8.00
2024-05-09T03:41:13.240Z,7.90
2024-05-09T03:46:15.608Z,8.50
2024-05-09T03:56:20.338Z,9.70
2024-05-09T04:01:22.788Z,7.80
2024-05-09T04:06:26.561Z,8.20
2024-05-09T04:11:30.220Z,6.80
2024-05-09T04:16:32.804Z,8.00
2024-05-09T04:21:35.641Z,8.20
2024-05-09T04:31:41.352Z,8.60
2024-05-09T04:36:45.171Z,8.80
2024-05-09T05:01:58.574Z,8.60
2024-05-09T05:12:07.279Z,8.80
2024-05-09T05:22:12.177Z,9.20
2024-05-09T05:27:14.687Z,8.90
2024-05-09T05:37:19.593Z,9.20
2024-05-09T05:42:21.795Z,11.60
2024-05-09T05:52:29.659Z,9.90
2024-05-09T05:57:32.082Z,9.80
2024-05-09T06:02:35.720Z,10.00
2024-05-09T06:07:39.098Z,10.10
2024-05-09T06:17:45.027Z,10.90
2024-05-09T06:22:47.361Z,9.40
2024-05-09T06:27:49.505Z,10.20
2024-05-09T06:32:52.218Z,11.30
2024-05-09T06:37:54.819Z,12.00
2024-05-09T06:43:00.766Z,11.70
2024-05-09T06:53:08.077Z,12.10
2024-05-09T07:03:16.040Z,13.50
2024-05-09T07:18:27.357Z,11.60
2024-05-09T07:23:29.594Z,13.10
2024-05-09T07:28:31.996Z,13.90
2024-05-09T07:33:34.455Z,13.40
2024-05-09T07:38:36.635Z,13.70
2024-05-09T07:53:50.644Z,16.10
2024-05-09T08:03:59.738Z,16.10
2024-05-09T08:09:07.670Z,16.60
2024-05-09T08:14:14.313Z,17.30
2024-05-09T08:19:16.502Z,17.50
2024-05-09T08:24:18.590Z,17.70
2024-05-09T08:29:20.698Z,17.80
2024-05-09T08:34:24.723Z,18.40
2024-05-09T08:39:27.518Z,19.70
2024-05-09T08:44:30.285Z,19.10
2024-05-09T08:49:32.655Z,20.30
2024-05-09T08:54:35.966Z,19.80
2024-05-09T08:59:38.301Z,20.40
2024-05-09T09:04:41.043Z,20.60
2024-05-09T09:09:43.449Z,21.00
2024-05-09T09:14:46.568Z,21.60
2024-05-09T09:19:48.754Z,22.30
2024-05-09T09:24:52.547Z,22.40
2024-05-09T09:29:57.065Z,22.90
2024-05-09T09:35:00.821Z,23.30
2024-05-09T09:40:05.673Z,23.50
2024-05-09T09:45:08.897Z,23.50
2024-05-09T09:50:14.553Z,24.00
2024-05-09T09:55:19.172Z,23.70
2024-05-09T10:00:27.088Z,23.90
2024-05-09T10:05:34.532Z,23.40
2024-05-09T10:10:37.198Z,23.90
2024-05-09T10:15:47.543Z,23.90
2024-05-09T10:20:50.880Z,25.20
2024-05-09T10:26:05.819Z,23.60
2024-05-09T10:31:15.054Z,24.40
2024-05-09T10:36:24.694Z,24.60
2024-05-09T10:41:26.712Z,23.90
2024-05-09T10:46:29.222Z,22.30
2024-05-09T10:51:31.444Z,22.50
2024-05-09T10:56:33.544Z,24.10
2024-05-09T11:01:35.861Z,24.50
2024-05-09T11:06:40.361Z,23.90
2024-05-09T11:11:42.622Z,23.90
2024-05-09T11:16:46.145Z,24.50
2024-05-09T11:21:51.803Z,25.30
2024-05-09T11:26:54.015Z,23.40
2024-05-09T11:31:56.078Z,24.50
2024-05-09T11:36:58.252Z,23.70
2024-05-09T11:42:00.478Z,24.50
2024-05-09T11:47:03.548Z,26.30
2024-05-09T11:52:05.856Z,25.80
2024-05-09T11:57:09.488Z,26.90
2024-05-09T12:02:12.140Z,24.10
2024-05-09T12:07:14.840Z,25.60
2024-05-09T12:12:17.114Z,25.20
2024-05-09T12:17:19.276Z,25.40
2024-05-09T12:22:21.835Z,25.50
2024-05-09T12:27:24.033Z,27.20
2024-05-09T12:32:26.701Z,26.50
2024-05-09T12:37:29.070Z,24.60
2024-05-09T13:31:58.781Z,27.20
2024-05-09T13:37:02.694Z,27.50
2024-05-09T13:42:12.221Z,27.90
2024-05-09T13:47:17.019Z,28.20
2024-05-09T13:52:21.805Z,27.00
2024-05-09T13:57:24.238Z,29.00
2024-05-09T14:02:28.449Z,28.00
2024-05-09T14:07:30.780Z,27.50
2024-05-09T14:12:38.634Z,27.90
2024-05-09T14:17:40.635Z,27.20
2024-05-09T14:22:42.623Z,27.50
2024-05-09T14:27:44.718Z,28.50
2024-05-09T14:32:46.939Z,28.40
2024-05-09T14:37:49.228Z,28.40
2024-05-09T14:42:51.250Z,28.40
2024-05-09T14:47:53.436Z,27.00
2024-05-09T14:52:55.671Z,27.70
2024-05-09T14:57:57.918Z,28.40
2024-05-09T15:03:04.105Z,30.00
2024-05-09T15:08:07.331Z,29.30
2024-05-09T15:13:12.249Z,29.20
2024-05-09T15:18:20.555Z,29.10
2024-05-09T15:23:23.531Z,29.40
2024-05-09T15:28:31.029Z,27.60
2024-05-09T15:33:38.859Z,26.40
2024-05-09T15:38:42.665Z,27.30
2024-05-09T15:43:44.729Z,26.70
2024-05-09T15:48:48.241Z,27.30
2024-05-09T15:53:50.490Z,25.70
2024-05-09T15:58:52.521Z,27.20
2024-05-09T16:03:54.610Z,25.70
2024-05-09T16:08:56.607Z,25.50
2024-05-09T16:24:03.957Z,23.70
2024-05-09T16:29:05.922Z,23.80
2024-05-09T16:34:08.256Z,23.40
2024-05-09T16:39:10.393Z,22.20
2024-05-09T16:44:12.425Z,23.30
2024-05-09T16:49:14.446Z,21.80
2024-05-09T16:54:16.427Z,23.20
2024-05-09T16:59:18.954Z,24.50
2024-05-09T17:09:25.630Z,23.60
2024-05-09T17:14:27.564Z,24.70
2024-05-09T17:19:29.662Z,23.80
2024-05-09T17:24:31.686Z,24.20
2024-05-09T17:29:36.038Z,23.00
2024-05-09T17:34:38.798Z,22.90
2024-05-09T17:39:40.893Z,22.50
2024-05-09T17:44:45.691Z,22.70
2024-05-09T17:49:47.689Z,21.60
2024-05-09T17:54:50.337Z,20.90
2024-05-09T17:59:52.492Z,20.50
2024-05-09T18:04:54.655Z,20.30
2024-05-09T18:09:56.867Z,20.10
2024-05-09T18:14:59.458Z,19.80
2024-05-09T18:20:02.035Z,19.10
2024-05-09T18:25:04.604Z,19.50
2024-05-09T18:30:11.655Z,19.20
2024-05-09T18:35:16.579Z,19.10
2024-05-09T18:40:27.266Z,18.90
2024-05-09T18:45:34.745Z,18.00
2024-05-09T18:50:39.764Z,18.50
2024-05-09T18:55:43.174Z,18.20
2024-05-09T19:00:47.243Z,17.60
2024-05-09T19:05:55.824Z,17.80
2024-05-09T19:10:58.379Z,16.60
2024-05-09T19:16:03.643Z,19.20
2024-05-09T19:21:05.872Z,18.10
2024-05-09T19:26:08.203Z,16.10
2024-05-09T19:31:12.729Z,15.50
2024-05-09T19:36:14.714Z,16.30
2024-05-09T19:46:19.131Z,14.90
2024-05-09T19:51:21.251Z,16.00
2024-05-09T19:56:25.712Z,17.70
2024-05-09T20:01:28.171Z,15.60
2024-05-09T20:06:30.180Z,15.60
2024-05-09T20:11:32.319Z,15.90
2024-05-09T20:16:34.363Z,13.90
2024-05-09T20:21:42.814Z,15.40
2024-05-09T20:26:44.947Z,15.20
2024-05-09T20:31:46.929Z,15.20
2024-05-09T20:36:49.034Z,15.00
2024-05-09T20:41:50.987Z,14.70
2024-05-09T20:46:53.040Z,14.60
2024-05-09T20:51:55.142Z,14.60
2024-05-09T20:56:57.208Z,14.50
2024-05-09T21:01:59.712Z,14.60
2024-05-09T21:07:01.934Z,14.20
2024-05-09T21:12:04.631Z,14.20
2024-05-09T21:17:06.816Z,14.20
2024-05-09T21:22:08.950Z,15.70
2024-05-09T21:27:11.654Z,13.50
2024-05-09T21:32:13.680Z,13.70
2024-05-09T21:37:15.790Z,13.60
2024-05-09T21:42:17.797Z,13.50
2024-05-09T21:47:19.900Z,13.20
2024-05-09T21:52:22.049Z,13.10
2024-05-09T21:57:26.822Z,12.90
2024-05-09T22:02:31.364Z,12.80
2024-05-09T22:07:33.488Z,12.70
2024-05-09T22:12:35.552Z,12.80
2024-05-09T22:17:39.942Z,12.80
2024-05-09T22:22:41.959Z,12.90
2024-05-09T22:27:44.943Z,13.00
2024-05-09T22:32:47.104Z,13.30
2024-05-09T22:37:49.112Z,12.30
2024-05-09T22:42:51.104Z,12.20
2024-05-09T22:47:53.186Z,12.30
2024-05-09T22:52:55.243Z,11.80
2024-05-09T22:57:57.342Z,11.80
2024-05-09T23:03:00.440Z,12.90
2024-05-09T23:08:02.690Z,11.80
2024-05-09T23:13:06.612Z,11.90
2024-05-09T23:18:09.306Z,11.70
2024-05-09T23:23:12.238Z,11.70
2024-05-09T23:28:14.471Z,12.80
2024-05-09T23:33:16.612Z,11.40
2024-05-09T23:38:21.756Z,11.40
2024-05-09T23:43:25.908Z,11.40
2024-05-09T23:48:32.240Z,11.10
2024-05-09T23:53:34.225Z,11.20
2024-05-09T23:58:36.200Z,12.40
